Time;durP1;ratioP1;P1;durP2;ratioP2;P2;SDS_P1;SDS_P2;PMS_P1;PMS_P2;Temp;Humidity;BMP_temperature;BMP_pressure;BME280_temperature;BME280_humidity;BME280_pressure;Samples;Min_cycle;Max_cycle;Signal;HPM_P1;HPM_P2
2023/12/08 00:00:54;;;;;;;31.83;15.15;;;4.20;99.90;;;;;;4976645;28;20114;-68
2023/12/08 00:03:20;;;;;;;36.35;15.90;;;4.20;99.90;;;;;;4981360;28;20030;-67
2023/12/08 00:05:46;;;;;;;33.10;15.43;;;4.20;99.90;;;;;;4978753;28;20038;-67
2023/12/08 00:08:12;;;;;;;28.27;14.60;;;4.20;99.90;;;;;;4988510;28;20022;-67
2023/12/08 00:10:38;;;;;;;33.55;15.57;;;4.20;99.90;;;;;;4979251;28;20073;-67
2023/12/08 00:13:04;;;;;;;32.15;15.40;;;4.30;99.90;;;;;;4983955;28;20026;-67
2023/12/08 00:15:30;;;;;;;32.47;14.55;;;4.10;99.90;;;;;;4995292;28;20045;-67
2023/12/08 00:17:56;;;;;;;34.13;16.23;;;4.10;99.90;;;;;;4994321;28;20049;-67
2023/12/08 00:20:23;;;;;;;32.63;15.15;;;4.10;99.90;;;;;;4997199;28;20087;-67
2023/12/08 00:22:50;;;;;;;34.95;14.93;;;4.00;99.90;;;;;;4990114;28;20049;-67
2023/12/08 00:25:16;;;;;;;33.35;15.18;;;4.00;99.90;;;;;;4996291;28;20034;-68
2023/12/08 00:27:42;;;;;;;36.25;16.83;;;4.10;99.90;;;;;;4997228;28;20101;-67
2023/12/08 00:30:08;;;;;;;40.90;16.20;;;4.10;99.90;;;;;;4995201;28;20104;-67
2023/12/08 00:32:34;;;;;;;39.50;15.52;;;4.20;99.90;;;;;;4995332;28;20513;-67
2023/12/08 00:35:00;;;;;;;34.88;15.32;;;4.20;99.90;;;;;;4993880;28;20041;-67
2023/12/08 00:37:26;;;;;;;36.08;15.90;;;4.30;99.90;;;;;;4996182;28;20057;-67
2023/12/08 00:39:52;;;;;;;34.42;16.63;;;4.20;99.90;;;;;;4992944;28;20570;-67
2023/12/08 00:42:18;;;;;;;37.83;16.58;;;4.20;99.90;;;;;;4995482;28;20037;-67
2023/12/08 00:44:44;;;;;;;43.53;17.65;;;4.20;99.90;;;;;;4993197;28;20038;-67
2023/12/08 00:47:10;;;;;;;38.35;16.75;;;4.30;99.90;;;;;;4993968;28;20070;-67
2023/12/08 00:49:35;;;;;;;42.47;17.83;;;4.20;99.90;;;;;;4993671;28;20033;-68
2023/12/08 00:52:01;;;;;;;33.72;15.98;;;4.10;99.90;;;;;;4992468;28;20027;-67
2023/12/08 00:54:27;;;;;;;36.38;16.20;;;4.10;99.90;;;;;;4994898;28;20402;-67
2023/12/08 00:56:53;;;;;;;36.13;15.68;;;4.10;99.90;;;;;;4991611;28;20035;-67
2023/12/08 00:59:19;;;;;;;40.83;17.00;;;4.10;99.90;;;;;;4994993;28;20041;-67
2023/12/08 01:01:45;;;;;;;39.83;15.98;;;4.10;99.90;;;;;;4991028;28;20080;-67
2023/12/08 01:04:10;;;;;;;43.78;18.35;;;4.10;99.90;;;;;;4993179;28;20031;-67
2023/12/08 01:06:36;;;;;;;35.72;15.57;;;4.00;99.90;;;;;;4992685;28;20104;-67
2023/12/08 01:09:02;;;;;;;41.38;16.58;;;4.00;99.90;;;;;;4991791;28;20074;-67
2023/12/08 01:11:28;;;;;;;40.80;17.20;;;4.10;99.90;;;;;;4993303;28;20498;-67
2023/12/08 01:13:54;;;;;;;35.38;15.68;;;4.10;99.90;;;;;;4988682;28;20445;-67
2023/12/08 01:16:19;;;;;;;36.35;16.13;;;4.20;99.90;;;;;;4992889;28;20768;-68
2023/12/08 01:18:45;;;;;;;39.03;16.88;;;4.00;99.90;;;;;;4990805;28;20030;-67
2023/12/08 01:21:11;;;;;;;36.60;15.73;;;4.00;99.90;;;;;;4991885;28;20039;-67
2023/12/08 01:23:37;;;;;;;40.45;16.15;;;4.00;99.90;;;;;;4990627;28;20108;-67
2023/12/08 01:26:06;;;;;;;39.05;16.27;;;3.90;99.90;;;;;;4990544;28;20057;-67
2023/12/08 01:28:32;;;;;;;30.80;14.35;;;3.90;99.90;;;;;;4987580;28;20054;-67
2023/12/08 01:30:58;;;;;;;29.65;13.70;;;3.90;99.90;;;;;;4981270;28;20058;-67
2023/12/08 01:33:24;;;;;;;38.42;15.90;;;3.80;99.90;;;;;;4990101;28;20042;-68
2023/12/08 01:35:50;;;;;;;36.50;14.73;;;3.70;99.90;;;;;;4989550;28;20076;-67
2023/12/08 01:38:15;;;;;;;32.58;15.27;;;3.70;99.90;;;;;;4992010;28;20038;-67
2023/12/08 01:40:41;;;;;;;30.80;14.65;;;3.80;99.90;;;;;;4986246;28;20034;-67
2023/12/08 01:43:14;;;;;;;31.98;14.48;;;3.70;99.90;;;;;;4989900;28;20094;-67
2023/12/08 01:45:40;;;;;;;33.20;15.43;;;3.60;99.90;;;;;;4989185;28;20027;-67
2023/12/08 01:48:07;;;;;;;32.92;14.50;;;3.60;99.90;;;;;;4989331;28;20506;-67
2023/12/08 01:50:33;;;;;;;33.03;14.63;;;3.50;99.90;;;;;;4989804;28;20030;-67
2023/12/08 01:53:00;;;;;;;33.50;14.85;;;3.60;99.90;;;;;;4988757;28;20033;-68
2023/12/08 01:55:27;;;;;;;35.63;14.75;;;3.60;99.90;;;;;;4990928;28;20034;-67
2023/12/08 01:57:53;;;;;;;31.35;14.35;;;3.70;99.90;;;;;;4987820;28;20037;-67
2023/12/08 02:00:19;;;;;;;32.63;14.43;;;3.60;99.90;;;;;;4990990;28;20711;-67
2023/12/08 02:02:45;;;;;;;36.40;14.15;;;3.70;99.90;;;;;;4988011;28;20041;-68
2023/12/08 02:05:13;;;;;;;32.20;14.35;;;3.80;99.90;;;;;;4988764;28;20162;-68
2023/12/08 02:07:39;;;;;;;32.35;14.10;;;3.70;99.90;;;;;;4987900;28;20026;-67
2023/12/08 02:10:05;;;;;;;30.95;14.93;;;3.70;99.90;;;;;;4987677;28;20039;-67
2023/12/08 02:12:31;;;;;;;32.47;14.30;;;3.70;99.90;;;;;;4989413;28;20033;-67
2023/12/08 02:14:58;;;;;;;34.08;15.07;;;3.80;99.90;;;;;;4986343;28;20026;-68
2023/12/08 02:17:35;;;;;;;33.53;15.27;;;3.70;99.90;;;;;;4989832;28;20040;-68
2023/12/08 02:20:05;;;;;;;29.88;13.57;;;3.70;99.90;;;;;;4987236;28;20423;-68
2023/12/08 02:22:31;;;;;;;32.78;14.30;;;3.70;99.90;;;;;;4988813;28;20044;-67
2023/12/08 02:24:57;;;;;;;34.67;14.63;;;3.70;99.90;;;;;;4989362;28;20050;-67
2023/12/08 02:27:23;;;;;;;34.42;14.73;;;3.70;99.90;;;;;;4992177;28;20140;-67
2023/12/08 02:29:49;;;;;;;32.97;14.73;;;3.70;99.90;;;;;;4986450;28;20041;-67
2023/12/08 02:32:26;;;;;;;33.97;14.90;;;3.80;99.90;;;;;;4991540;28;20066;-67
2023/12/08 02:34:53;;;;;;;32.35;14.48;;;3.80;99.90;;;;;;4988824;28;20030;-68
2023/12/08 02:37:21;;;;;;;36.20;16.83;;;3.80;99.90;;;;;;4994740;28;20030;-68
2023/12/08 02:39:48;;;;;;;37.58;15.60;;;3.80;99.90;;;;;;4989103;28;20049;-68
2023/12/08 02:42:15;;;;;;;34.72;15.75;;;3.90;99.90;;;;;;4990851;28;20045;-68
2023/12/08 02:44:41;;;;;;;32.30;14.52;;;3.80;99.90;;;;;;4989410;28;20026;-67
2023/12/08 02:47:07;;;;;;;30.20;14.07;;;3.80;99.90;;;;;;4989105;28;20034;-67
2023/12/08 02:49:34;;;;;;;32.83;13.88;;;3.70;99.90;;;;;;4989403;28;20045;-68
2023/12/08 02:52:00;;;;;;;34.42;16.23;;;3.70;99.90;;;;;;4988951;28;20034;-68
2023/12/08 02:54:26;;;;;;;35.53;15.45;;;3.70;99.90;;;;;;4989854;28;20033;-67
2023/12/08 02:56:51;;;;;;;33.35;15.73;;;3.70;99.90;;;;;;4986977;28;20113;-67
2023/12/08 02:59:17;;;;;;;39.60;15.75;;;3.80;99.90;;;;;;4990436;28;20042;-68
2023/12/08 03:01:43;;;;;;;34.95;14.80;;;3.80;99.90;;;;;;4987769;28;20038;-68
2023/12/08 03:04:11;;;;;;;33.85;14.68;;;3.80;99.90;;;;;;4988815;28;20037;-67
2023/12/08 03:06:37;;;;;;;34.00;14.85;;;3.80;99.90;;;;;;4986141;28;20022;-68
2023/12/08 03:09:04;;;;;;;32.50;15.10;;;3.80;99.90;;;;;;4986973;28;20030;-67
2023/12/08 03:11:30;;;;;;;33.80;14.38;;;3.90;99.90;;;;;;4990599;28;20037;-67
2023/12/08 03:13:55;;;;;;;33.00;15.35;;;3.90;99.90;;;;;;4984328;28;20406;-68
2023/12/08 03:16:21;;;;;;;32.70;14.40;;;3.90;99.90;;;;;;4983406;28;20030;-67
2023/12/08 03:18:47;;;;;;;28.83;14.73;;;3.90;99.90;;;;;;4983591;28;20537;-67
2023/12/08 03:21:23;;;;;;;31.77;13.38;;;4.00;99.90;;;;;;4985956;28;20045;-68
2023/12/08 03:23:49;;;;;;;34.30;15.00;;;4.00;99.90;;;;;;4985550;28;20026;-67
2023/12/08 03:26:15;;;;;;;35.50;15.10;;;4.00;99.90;;;;;;4988063;28;20037;-68
2023/12/08 03:28:41;;;;;;;30.38;13.98;;;4.00;99.90;;;;;;4986166;28;20030;-67
2023/12/08 03:31:19;;;;;;;34.65;14.85;;;3.90;99.90;;;;;;4983381;28;20236;-68
2023/12/08 03:33:45;;;;;;;34.25;14.60;;;3.90;99.90;;;;;;4983955;28;20022;-68
2023/12/08 03:36:11;;;;;;;33.53;15.25;;;4.00;99.90;;;;;;4986122;28;20806;-67
2023/12/08 03:38:37;;;;;;;34.08;15.07;;;4.00;99.90;;;;;;4985726;28;20022;-68
2023/12/08 03:41:02;;;;;;;32.45;14.05;;;3.90;99.90;;;;;;4985114;28;20030;-67
2023/12/08 03:43:28;;;;;;;37.33;15.45;;;4.00;99.90;;;;;;4985884;28;20030;-67
2023/12/08 03:45:54;;;;;;;32.33;14.15;;;3.90;99.90;;;;;;4983009;28;20420;-67
2023/12/08 03:48:20;;;;;;;38.97;14.25;;;3.80;99.90;;;;;;4983581;28;20042;-68
2023/12/08 03:50:46;;;;;;;39.72;15.75;;;3.90;99.90;;;;;;4983595;28;20027;-67
2023/12/08 03:53:11;;;;;;;42.75;14.55;;;3.90;99.90;;;;;;4985305;28;20053;-67
2023/12/08 03:55:37;;;;;;;36.03;15.50;;;3.90;99.90;;;;;;4984445;28;20062;-67
2023/12/08 03:58:03;;;;;;;41.10;15.32;;;3.80;99.90;;;;;;4983438;28;20123;-68
2023/12/08 04:00:29;;;;;;;34.40;15.43;;;3.80;99.90;;;;;;4984435;28;20449;-68
2023/12/08 04:02:55;;;;;;;37.05;14.82;;;3.80;99.90;;;;;;4985112;28;20031;-68
2023/12/08 04:05:21;;;;;;;35.45;15.02;;;3.80;99.90;;;;;;4985520;28;20066;-68
2023/12/08 04:07:46;;;;;;;35.13;16.05;;;3.80;99.90;;;;;;4982463;28;20096;-68
2023/12/08 04:10:12;;;;;;;35.00;14.40;;;3.60;99.90;;;;;;4983925;28;20027;-67
2023/12/08 04:12:38;;;;;;;34.97;15.70;;;3.50;99.90;;;;;;4982489;28;20046;-67
2023/12/08 04:15:04;;;;;;;34.40;14.02;;;3.50;99.90;;;;;;4984832;28;20058;-68
2023/12/08 04:17:30;;;;;;;33.55;15.23;;;3.50;99.90;;;;;;4984769;28;20030;-68
2023/12/08 04:19:56;;;;;;;32.97;13.82;;;3.50;99.90;;;;;;4980666;28;20094;-68
2023/12/08 04:22:22;;;;;;;34.88;16.10;;;3.50;99.90;;;;;;4983594;28;20111;-67
2023/12/08 04:24:48;;;;;;;33.85;15.02;;;3.40;99.90;;;;;;4981044;28;20034;-68
2023/12/08 04:27:13;;;;;;;33.83;15.25;;;3.30;99.90;;;;;;4997674;28;20035;-68
2023/12/08 04:29:39;;;;;;;32.00;13.85;;;3.20;99.90;;;;;;4981744;28;20037;-67
2023/12/08 04:32:06;;;;;;;34.35;15.13;;;3.20;99.90;;;;;;4979730;28;20861;-68
2023/12/08 04:34:31;;;;;;;32.70;13.55;;;3.00;99.90;;;;;;4981228;28;20122;-67
2023/12/08 04:36:57;;;;;;;30.50;13.82;;;3.10;99.90;;;;;;4979670;28;20034;-68
2023/12/08 04:39:23;;;;;;;32.63;13.32;;;3.20;99.90;;;;;;4982667;28;20526;-67
2023/12/08 04:41:49;;;;;;;33.42;14.55;;;3.20;99.90;;;;;;4979543;28;20069;-68
2023/12/08 04:44:14;;;;;;;35.38;14.65;;;3.30;99.90;;;;;;4981686;28;20037;-67
2023/12/08 04:46:40;;;;;;;36.13;14.23;;;3.20;99.90;;;;;;4987187;28;20057;-68
2023/12/08 04:49:06;;;;;;;36.60;14.82;;;3.20;99.90;;;;;;4980423;28;20575;-68
2023/12/08 04:51:32;;;;;;;37.53;15.90;;;3.30;99.90;;;;;;4981141;28;20105;-68
2023/12/08 04:53:58;;;;;;;33.22;14.50;;;3.30;99.90;;;;;;4978394;28;20035;-67
2023/12/08 04:56:24;;;;;;;31.60;15.02;;;3.20;99.90;;;;;;4981197;28;20065;-68
2023/12/08 04:58:50;;;;;;;34.97;14.90;;;3.20;99.90;;;;;;4978245;28;20034;-67
2023/12/08 05:01:15;;;;;;;32.97;13.38;;;3.20;99.90;;;;;;4980640;28;20030;-67
2023/12/08 05:03:41;;;;;;;31.20;14.25;;;3.00;99.90;;;;;;4979182;28;20057;-67
2023/12/08 05:06:08;;;;;;;31.50;14.00;;;3.10;99.90;;;;;;4979023;28;20136;-67
2023/12/08 05:08:34;;;;;;;32.92;13.63;;;3.10;99.90;;;;;;4981007;28;20044;-67
2023/12/08 05:10:59;;;;;;;29.80;13.93;;;3.10;99.90;;;;;;4976429;28;20542;-67
2023/12/08 05:13:25;;;;;;;37.30;15.45;;;3.20;99.90;;;;;;4983600;28;20112;-67
2023/12/08 05:15:51;;;;;;;32.55;13.82;;;3.10;99.90;;;;;;4976971;28;20090;-67
2023/12/08 05:18:17;;;;;;;32.28;13.70;;;3.10;99.90;;;;;;4979876;28;20044;-68
2023/12/08 05:20:43;;;;;;;30.63;13.40;;;3.20;99.90;;;;;;4977386;28;20490;-68
2023/12/08 05:23:09;;;;;;;33.55;14.40;;;3.20;99.90;;;;;;4978087;28;20039;-67
2023/12/08 05:25:35;;;;;;;31.50;13.65;;;3.10;99.90;;;;;;4978801;28;20034;-67
2023/12/08 05:28:01;;;;;;;34.30;12.77;;;3.10;99.90;;;;;;4976954;28;20031;-67
2023/12/08 05:30:30;;;;;;;36.47;15.35;;;3.10;99.90;;;;;;4978826;28;20026;-68
2023/12/08 05:32:56;;;;;;;38.60;15.70;;;3.20;99.90;;;;;;4975919;28;20039;-67
2023/12/08 05:35:22;;;;;;;40.10;15.10;;;3.20;99.90;;;;;;4978287;28;20057;-67
2023/12/08 05:37:48;;;;;;;35.03;14.98;;;3.20;99.90;;;;;;4975628;28;20113;-67
2023/12/08 05:40:14;;;;;;;34.40;16.00;;;3.10;99.90;;;;;;4977684;28;20448;-67
2023/12/08 05:42:39;;;;;;;31.73;14.45;;;3.10;99.90;;;;;;4976629;28;20113;-68
2023/12/08 05:45:06;;;;;;;34.28;14.57;;;3.10;99.90;;;;;;4974975;28;20034;-68
2023/12/08 05:47:32;;;;;;;28.75;12.45;;;3.00;99.90;;;;;;4977524;28;20049;-67
2023/12/08 05:49:58;;;;;;;37.80;14.63;;;3.00;99.90;;;;;;4975081;28;20035;-67
2023/12/08 05:52:23;;;;;;;32.38;13.18;;;3.10;99.90;;;;;;4977545;28;20030;-67
2023/12/08 05:54:49;;;;;;;35.88;14.15;;;3.10;99.90;;;;;;4978744;28;20161;-67
2023/12/08 05:57:15;;;;;;;33.63;13.15;;;3.00;99.90;;;;;;4977486;28;20076;-68
2023/12/08 05:59:41;;;;;;;30.95;12.90;;;3.10;99.90;;;;;;4979243;28;20034;-68
2023/12/08 06:02:07;;;;;;;38.50;15.35;;;3.00;99.90;;;;;;4980867;28;20035;-67
2023/12/08 06:04:33;;;;;;;32.97;13.43;;;3.00;99.90;;;;;;4997892;28;20024;-68
2023/12/08 06:06:59;;;;;;;34.00;14.73;;;3.00;99.90;;;;;;4997537;28;20018;-68
2023/12/08 06:09:24;;;;;;;33.17;13.75;;;3.00;99.90;;;;;;4999978;28;20034;-67
2023/12/08 06:11:50;;;;;;;30.38;12.95;;;3.00;99.90;;;;;;4996583;28;20048;-67
2023/12/08 06:14:16;;;;;;;32.28;13.93;;;3.10;99.90;;;;;;4996571;28;20089;-68
2023/12/08 06:16:43;;;;;;;39.50;15.15;;;3.00;99.90;;;;;;4999883;28;20080;-68
2023/12/08 06:19:09;;;;;;;32.30;12.55;;;2.90;99.90;;;;;;4997865;28;20085;-68
2023/12/08 06:21:35;;;;;;;28.70;13.57;;;2.90;99.90;;;;;;4997202;28;20036;-68
2023/12/08 06:24:01;;;;;;;33.13;14.23;;;2.90;99.90;;;;;;4996260;28;20022;-67
2023/12/08 06:26:27;;;;;;;32.67;14.35;;;2.90;99.90;;;;;;4998098;28;20541;-68
2023/12/08 06:28:53;;;;;;;32.65;13.82;;;2.90;99.90;;;;;;4995308;28;20033;-67
2023/12/08 06:31:19;;;;;;;29.45;14.25;;;2.90;99.90;;;;;;4997146;28;20036;-68
2023/12/08 06:33:45;;;;;;;28.90;13.30;;;2.90;99.90;;;;;;4995511;28;20015;-68
2023/12/08 06:36:11;;;;;;;31.55;13.32;;;2.90;99.90;;;;;;4976485;28;20038;-67
2023/12/08 06:38:40;;;;;;;31.15;12.70;;;2.80;99.90;;;;;;4986755;28;20037;-67
2023/12/08 06:41:06;;;;;;;28.67;13.10;;;2.80;99.90;;;;;;4988152;28;20058;-68
2023/12/08 06:43:32;;;;;;;29.02;13.23;;;2.80;99.90;;;;;;4995980;28;20795;-68
2023/12/08 06:45:58;;;;;;;34.00;13.18;;;2.80;99.90;;;;;;4994050;28;20080;-68
2023/12/08 06:48:24;;;;;;;29.20;12.55;;;2.90;99.90;;;;;;4996860;28;20493;-68
2023/12/08 06:50:53;;;;;;;30.95;13.50;;;2.80;99.90;;;;;;4993241;28;20801;-68
2023/12/08 06:53:19;;;;;;;38.42;14.98;;;2.90;99.90;;;;;;4995703;28;20052;-67
2023/12/08 06:55:44;;;;;;;42.05;13.88;;;2.90;99.90;;;;;;4993648;28;20813;-68
2023/12/08 06:58:10;;;;;;;35.03;14.07;;;2.90;99.90;;;;;;4994339;28;20035;-68
2023/12/08 07:00:36;;;;;;;30.30;12.90;;;2.80;99.90;;;;;;4994460;28;20030;-68
2023/12/08 07:03:02;;;;;;;38.55;14.73;;;2.80;99.90;;;;;;4993409;28;20129;-68
2023/12/08 07:05:29;;;;;;;31.40;13.95;;;2.90;99.90;;;;;;4994668;28;20028;-67
2023/12/08 07:07:56;;;;;;;34.67;15.02;;;2.90;99.90;;;;;;4991776;28;20018;-70
2023/12/08 07:10:22;;;;;;;33.33;13.60;;;2.80;99.90;;;;;;4986303;28;20030;-67
2023/12/08 07:12:48;;;;;;;33.50;14.02;;;2.70;99.90;;;;;;4990221;28;20034;-67
2023/12/08 07:15:14;;;;;;;38.47;13.65;;;2.70;99.90;;;;;;4987842;28;20491;-67
2023/12/08 07:17:39;;;;;;;27.85;13.30;;;2.70;99.90;;;;;;4988973;28;20034;-67
2023/12/08 07:20:09;;;;;;;33.55;14.00;;;2.70;99.90;;;;;;4992537;28;20549;-67
2023/12/08 07:22:36;;;;;;;29.98;12.80;;;2.70;99.90;;;;;;4993182;28;20752;-67
2023/12/08 07:25:08;;;;;;;27.73;12.25;;;2.70;99.90;;;;;;5005954;28;20138;-67
2023/12/08 07:27:34;;;;;;;27.88;13.32;;;2.60;99.90;;;;;;4989840;28;20038;-67
2023/12/08 07:30:03;;;;;;;29.73;12.48;;;2.70;99.90;;;;;;4984650;28;20640;-69
2023/12/08 07:32:28;;;;;;;32.85;13.32;;;2.80;99.90;;;;;;4990846;28;20779;-67
2023/12/08 07:34:54;;;;;;;30.92;13.50;;;2.70;99.90;;;;;;4989653;28;20030;-67
2023/12/08 07:37:20;;;;;;;30.25;13.57;;;2.70;99.90;;;;;;4989057;28;20041;-65
2023/12/08 07:39:46;;;;;;;31.40;12.20;;;2.90;99.90;;;;;;4987246;28;20080;-68
2023/12/08 07:42:12;;;;;;;35.72;14.23;;;2.90;99.90;;;;;;4992122;28;20038;-68
2023/12/08 07:44:37;;;;;;;30.10;13.57;;;2.90;99.90;;;;;;4990627;28;20753;-69
2023/12/08 07:47:04;;;;;;;33.60;13.75;;;3.00;99.90;;;;;;4995612;28;20053;-69
2023/12/08 07:49:30;;;;;;;31.75;13.13;;;2.90;99.90;;;;;;4991542;28;20385;-69
2023/12/08 07:51:57;;;;;;;26.10;11.98;;;3.00;99.90;;;;;;4988854;28;20022;-69
2023/12/08 07:54:23;;;;;;;30.83;13.20;;;2.90;99.90;;;;;;4994176;28;20041;-69
2023/12/08 07:56:49;;;;;;;35.15;13.75;;;3.00;99.90;;;;;;4992953;28;20030;-69
2023/12/08 07:59:14;;;;;;;33.45;15.32;;;3.10;99.90;;;;;;4991569;28;20085;-69
2023/12/08 08:01:40;;;;;;;27.85;13.38;;;3.10;99.90;;;;;;4986403;28;20034;-69
2023/12/08 08:04:06;;;;;;;32.53;13.40;;;3.10;99.90;;;;;;4988352;28;20030;-69
2023/12/08 08:06:32;;;;;;;34.45;13.85;;;3.10;99.90;;;;;;4991640;28;20034;-69
2023/12/08 08:08:58;;;;;;;34.10;13.75;;;3.10;99.90;;;;;;4990108;28;20066;-69
2023/12/08 08:11:24;;;;;;;28.98;13.52;;;3.20;99.90;;;;;;4990189;28;20038;-69
2023/12/08 08:13:50;;;;;;;31.88;14.23;;;3.20;99.90;;;;;;4986698;28;20035;-69
2023/12/08 08:16:16;;;;;;;30.83;13.25;;;3.20;99.90;;;;;;4990480;28;20046;-69
2023/12/08 08:18:41;;;;;;;32.33;14.25;;;3.30;99.90;;;;;;4988507;28;20023;-69
2023/12/08 08:21:07;;;;;;;33.20;13.57;;;3.30;99.90;;;;;;4992192;28;20209;-69
2023/12/08 08:23:33;;;;;;;25.45;12.73;;;3.20;99.90;;;;;;4987876;28;20038;-69
2023/12/08 08:25:59;;;;;;;29.42;13.63;;;3.10;99.90;;;;;;4985058;28;20026;-69
2023/12/08 08:28:26;;;;;;;37.45;13.52;;;3.10;99.90;;;;;;4988752;28;20033;-69
2023/12/08 08:30:52;;;;;;;30.17;13.60;;;2.90;99.90;;;;;;4985331;28;20109;-69
2023/12/08 08:33:17;;;;;;;31.48;13.25;;;2.90;99.90;;;;;;4988465;28;20561;-69
2023/12/08 08:35:43;;;;;;;31.15;14.13;;;2.90;99.90;;;;;;4986511;28;20216;-69
2023/12/08 08:38:11;;;;;;;30.08;12.45;;;2.80;99.90;;;;;;4987608;28;20037;-69
2023/12/08 08:40:37;;;;;;;28.05;12.00;;;2.80;99.90;;;;;;4984695;28;20027;-69
2023/12/08 08:43:03;;;;;;;31.23;13.00;;;2.80;99.90;;;;;;4985416;28;20026;-69
2023/12/08 08:45:28;;;;;;;30.80;13.52;;;2.90;99.90;;;;;;4992242;28;20030;-69
2023/12/08 08:47:54;;;;;;;25.42;13.05;;;2.90;99.90;;;;;;4984053;28;20390;-69
2023/12/08 08:50:22;;;;;;;31.25;14.13;;;3.00;99.90;;;;;;4989797;28;20513;-69
2023/12/08 08:52:48;;;;;;;25.77;11.95;;;3.10;99.90;;;;;;4984873;28;20441;-70
2023/12/08 08:55:13;;;;;;;27.42;12.15;;;3.10;99.90;;;;;;4986761;28;20133;-67
2023/12/08 08:57:39;;;;;;;30.42;12.55;;;3.20;99.90;;;;;;4984870;28;20487;-68
2023/12/08 09:00:09;;;;;;;25.60;12.68;;;3.30;99.90;;;;;;4986785;28;20026;-68
2023/12/08 09:02:35;;;;;;;26.70;12.57;;;3.30;99.90;;;;;;4983290;28;20077;-68
2023/12/08 09:05:01;;;;;;;29.27;12.32;;;3.40;99.90;;;;;;4983447;28;20495;-67
2023/12/08 09:07:26;;;;;;;25.92;11.50;;;3.40;99.90;;;;;;4985813;28;20053;-67
2023/12/08 09:09:52;;;;;;;23.35;11.73;;;3.20;99.90;;;;;;4983059;28;20542;-65
2023/12/08 09:12:19;;;;;;;23.52;10.75;;;3.10;99.90;;;;;;4982196;28;20030;-67
2023/12/08 09:14:44;;;;;;;24.52;11.02;;;3.10;99.90;;;;;;4982646;28;20034;-68
2023/12/08 09:17:10;;;;;;;24.60;11.52;;;3.20;99.90;;;;;;4987166;28;20031;-68
2023/12/08 09:19:37;;;;;;;25.50;11.10;;;3.30;99.90;;;;;;4985396;28;20030;-68
2023/12/08 09:22:05;;;;;;;27.95;13.10;;;3.20;99.90;;;;;;4984957;28;20133;-68
2023/12/08 09:24:31;;;;;;;24.20;11.57;;;3.20;99.90;;;;;;4984481;28;20030;-68
2023/12/08 09:26:57;;;;;;;28.45;11.57;;;3.30;99.90;;;;;;4980819;28;20034;-68
2023/12/08 09:29:22;;;;;;;22.67;10.63;;;3.40;99.90;;;;;;4984835;28;20053;-68
2023/12/08 09:31:49;;;;;;;21.58;10.68;;;3.40;99.90;;;;;;4985487;28;20038;-68
2023/12/08 09:34:16;;;;;;;25.08;10.68;;;3.40;99.90;;;;;;4987441;28;20109;-68
2023/12/08 09:36:42;;;;;;;25.98;11.73;;;3.50;99.90;;;;;;4985163;28;20109;-68
2023/12/08 09:39:08;;;;;;;26.30;11.30;;;3.40;99.90;;;;;;4985319;28;20252;-68
2023/12/08 09:41:40;;;;;;;24.02;11.18;;;3.40;99.90;;;;;;4986159;28;20038;-68
2023/12/08 09:44:13;;;;;;;28.33;10.25;;;3.40;99.90;;;;;;4982634;28;20141;-68
2023/12/08 09:46:45;;;;;;;23.88;10.60;;;3.40;99.90;;;;;;4982159;28;20065;-68
2023/12/08 09:49:27;;;;;;;21.50;10.55;;;3.50;99.90;;;;;;4986302;28;20080;-67
2023/12/08 09:51:53;;;;;;;23.15;10.23;;;3.60;99.90;;;;;;4983309;28;20673;-66
2023/12/08 09:54:20;;;;;;;22.25;10.02;;;3.60;99.90;;;;;;4987306;28;20626;-68
2023/12/08 09:56:54;;;;;;;26.17;10.80;;;3.60;99.90;;;;;;4983550;28;20117;-68
2023/12/08 09:59:26;;;;;;;24.92;10.95;;;3.70;99.90;;;;;;4986658;28;20029;-68
2023/12/08 10:01:52;;;;;;;23.75;10.70;;;3.70;99.90;;;;;;4983104;28;20039;-68
2023/12/08 10:04:19;;;;;;;23.13;10.60;;;3.80;99.90;;;;;;4985455;28;20112;-68
2023/12/08 10:06:45;;;;;;;26.65;11.80;;;3.70;99.90;;;;;;4982472;28;20018;-68
2023/12/08 10:09:14;;;;;;;27.02;12.30;;;3.70;99.90;;;;;;4983974;28;20105;-68
2023/12/08 10:11:41;;;;;;;24.00;11.82;;;3.80;99.90;;;;;;4990179;28;20116;-68
2023/12/08 10:14:07;;;;;;;23.58;10.60;;;3.80;99.90;;;;;;4987109;28;20030;-68
2023/12/08 10:16:33;;;;;;;22.00;10.73;;;3.80;99.90;;;;;;4984790;28;20026;-68
2023/12/08 10:19:07;;;;;;;20.83;9.70;;;3.80;99.90;;;;;;4982010;28;20027;-68
2023/12/08 10:21:34;;;;;;;24.90;10.82;;;3.80;99.90;;;;;;4983938;28;20080;-68
2023/12/08 10:24:01;;;;;;;20.88;11.13;;;3.80;99.90;;;;;;4982021;28;20056;-68
2023/12/08 10:26:27;;;;;;;23.70;10.77;;;3.80;99.90;;;;;;4983631;28;20042;-68
2023/12/08 10:28:55;;;;;;;21.30;9.40;;;3.70;99.90;;;;;;4981231;28;20042;-68
2023/12/08 10:31:21;;;;;;;21.13;10.43;;;3.70;99.90;;;;;;4986838;28;20102;-68
2023/12/08 10:33:51;;;;;;;17.70;9.30;;;3.70;99.90;;;;;;4981152;28;20556;-67
2023/12/08 10:36:18;;;;;;;20.70;10.75;;;3.70;99.90;;;;;;4981423;28;20096;-68
2023/12/08 10:38:46;;;;;;;24.52;9.63;;;3.70;99.90;;;;;;4981988;28;20088;-68
2023/12/08 10:41:13;;;;;;;22.10;9.02;;;3.80;99.90;;;;;;4982476;28;20725;-68
2023/12/08 10:43:39;;;;;;;20.35;9.82;;;3.90;99.90;;;;;;4981394;28;20751;-69
2023/12/08 10:46:06;;;;;;;20.67;9.63;;;4.10;99.90;;;;;;4987532;28;20778;-67
2023/12/08 10:48:34;;;;;;;19.15;9.25;;;4.00;99.90;;;;;;4990021;28;20026;-68
2023/12/08 10:51:00;;;;;;;24.58;10.60;;;4.00;99.90;;;;;;4999171;28;20026;-68
2023/12/08 10:53:27;;;;;;;23.25;10.02;;;3.90;99.90;;;;;;5007656;28;20153;-68
2023/12/08 10:56:00;;;;;;;19.70;9.50;;;4.00;99.90;;;;;;5007357;28;20088;-68
2023/12/08 10:58:28;;;;;;;18.63;9.30;;;3.80;99.90;;;;;;5007543;28;20037;-68
2023/12/08 11:00:55;;;;;;;20.10;9.93;;;3.70;99.90;;;;;;5007206;28;20037;-68
2023/12/08 11:03:23;;;;;;;16.88;8.88;;;3.80;99.90;;;;;;5007116;28;20050;-68
2023/12/08 11:06:04;;;;;;;22.05;9.18;;;3.90;99.90;;;;;;5007804;28;20030;-68
2023/12/08 11:08:31;;;;;;;19.48;8.77;;;3.90;99.90;;;;;;5007431;28;20120;-68
2023/12/08 11:10:58;;;;;;;18.10;10.27;;;4.00;99.90;;;;;;5006299;28;20029;-68
2023/12/08 11:13:39;;;;;;;23.10;10.82;;;4.00;99.90;;;;;;4987215;28;20030;-68
2023/12/08 11:16:30;;;;;;;23.08;10.27;;;3.90;99.90;;;;;;4987999;28;20060;-68
2023/12/08 11:18:57;;;;;;;20.38;10.15;;;4.00;99.90;;;;;;4987928;28;20049;-68
2023/12/08 11:21:23;;;;;;;22.15;10.52;;;3.90;99.90;;;;;;4987773;28;20136;-68
2023/12/08 11:23:50;;;;;;;21.98;10.35;;;3.90;99.90;;;;;;4987276;28;20038;-68
2023/12/08 11:26:40;;;;;;;21.00;9.77;;;3.90;99.90;;;;;;4987292;28;20372;-68
2023/12/08 11:29:17;;;;;;;19.60;9.57;;;3.90;99.90;;;;;;4985125;28;20030;-68
2023/12/08 11:32:01;;;;;;;23.60;9.95;;;4.00;99.90;;;;;;4993484;28;20487;-68
2023/12/08 11:34:56;;;;;;;23.65;9.48;;;3.90;99.90;;;;;;5006879;28;20044;-68
2023/12/08 11:37:22;;;;;;;18.55;9.98;;;4.10;99.90;;;;;;5006532;28;20046;-68
2023/12/08 11:39:48;;;;;;;22.45;9.85;;;4.10;99.90;;;;;;5006563;28;20034;-68
2023/12/08 11:42:16;;;;;;;23.35;10.50;;;4.10;99.90;;;;;;5006910;28;20034;-65
2023/12/08 11:44:44;;;;;;;25.92;11.05;;;3.90;99.90;;;;;;5006915;28;20116;-68
2023/12/08 11:47:14;;;;;;;19.80;9.82;;;3.90;99.90;;;;;;5006234;28;20033;-68
2023/12/08 11:49:43;;;;;;;25.02;11.55;;;3.90;99.90;;;;;;5006085;28;20676;-68
2023/12/08 11:52:19;;;;;;;21.85;10.55;;;4.00;99.90;;;;;;5006640;28;20034;-68
2023/12/08 11:55:03;;;;;;;17.42;9.25;;;4.10;99.90;;;;;;5005359;28;20776;-69
2023/12/08 11:57:30;;;;;;;21.02;10.57;;;4.20;99.90;;;;;;5006704;28;20044;-68
2023/12/08 11:59:56;;;;;;;27.35;11.50;;;4.20;99.90;;;;;;5006574;28;20030;-68
2023/12/08 12:02:22;;;;;;;21.85;10.80;;;4.20;99.90;;;;;;5005312;28;20042;-68
2023/12/08 12:04:49;;;;;;;25.85;11.18;;;4.20;99.90;;;;;;5006100;28;20057;-67
2023/12/08 12:07:18;;;;;;;26.55;11.13;;;4.20;99.90;;;;;;5003267;28;20044;-67
2023/12/08 12:09:48;;;;;;;25.85;11.70;;;4.20;99.90;;;;;;5005412;28;20045;-67
2023/12/08 12:12:31;;;;;;;21.13;10.40;;;4.20;99.90;;;;;;4994604;28;20713;-68
2023/12/08 12:15:03;;;;;;;22.15;9.85;;;4.20;99.90;;;;;;4966585;28;20073;-68
2023/12/08 12:17:36;;;;;;;22.42;10.30;;;4.20;99.90;;;;;;5081522;28;20393;-68
2023/12/08 12:20:03;;;;;;;20.48;9.75;;;4.00;99.90;;;;;;5061854;28;20114;-68
2023/12/08 12:22:29;;;;;;;23.83;11.43;;;4.10;99.90;;;;;;5061984;28;20056;-68
2023/12/08 12:24:54;;;;;;;25.42;11.40;;;4.10;99.90;;;;;;5061502;28;20709;-68
2023/12/08 12:27:20;;;;;;;24.10;11.23;;;4.10;99.90;;;;;;5061851;28;20036;-68
2023/12/08 12:29:46;;;;;;;23.85;11.05;;;4.10;99.90;;;;;;5061577;28;20040;-67
2023/12/08 12:32:12;;;;;;;23.00;11.75;;;4.10;99.90;;;;;;5059859;28;20040;-68
2023/12/08 12:34:39;;;;;;;26.55;10.88;;;4.20;99.90;;;;;;5061737;28;20051;-68
2023/12/08 12:37:08;;;;;;;21.00;10.27;;;4.10;99.90;;;;;;5061831;28;20751;-68